sensor_id;sensor_type;location;lat;lon;timestamp;pressure;altitude;pressure_sealevel;temperature;humidity
64602;BME280;68371;42.630;23.192;2023-05-19T00:01:12;92573.22;;;10.55;100.00
64602;BME280;68371;42.630;23.192;2023-05-19T00:03:48;92573.97;;;10.56;100.00
64602;BME280;68371;42.630;23.192;2023-05-19T00:06:23;92576.16;;;10.54;100.00
64602;BME280;68371;42.630;23.192;2023-05-19T00:08:55;92570.81;;;10.50;100.00
64602;BME280;68371;42.630;23.192;2023-05-19T00:11:23;92571.03;;;10.57;100.00
64602;BME280;68371;42.630;23.192;2023-05-19T00:13:52;92568.53;;;10.49;100.00
64602;BME280;68371;42.630;23.192;2023-05-19T00:16:19;92572.91;;;10.45;100.00
64602;BME280;68371;42.630;23.192;2023-05-19T00:18:45;92565.56;;;10.50;100.00
64602;BME280;68371;42.630;23.192;2023-05-19T00:21:13;92573.97;;;10.56;100.00
64602;BME280;68371;42.630;23.192;2023-05-19T00:23:44;92570.38;;;10.48;100.00
64602;BME280;68371;42.630;23.192;2023-05-19T00:26:15;92565.66;;;10.41;100.00
64602;BME280;68371;42.630;23.192;2023-05-19T00:28:42;92556.28;;;10.40;100.00
64602;BME280;68371;42.630;23.192;2023-05-19T00:31:08;92561.19;;;10.42;100.00
64602;BME280;68371;42.630;23.192;2023-05-19T00:33:35;92556.81;;;10.34;100.00
64602;BME280;68371;42.630;23.192;2023-05-19T00:36:03;92549.72;;;10.34;100.00
64602;BME280;68371;42.630;23.192;2023-05-19T00:38:30;92563.16;;;10.45;100.00
64602;BME280;68371;42.630;23.192;2023-05-19T00:40:59;92560.31;;;10.50;100.00
64602;BME280;68371;42.630;23.192;2023-05-19T00:43:26;92554.53;;;10.45;100.00
64602;BME280;68371;42.630;23.192;2023-05-19T00:45:54;92556.03;;;10.46;100.00
64602;BME280;68371;42.630;23.192;2023-05-19T00:48:21;92533.84;;;10.31;100.00
64602;BME280;68371;42.630;23.192;2023-05-19T00:50:48;92555.50;;;10.40;100.00
64602;BME280;68371;42.630;23.192;2023-05-19T00:53:16;92543.34;;;10.35;100.00
64602;BME280;68371;42.630;23.192;2023-05-19T00:55:44;92545.97;;;10.35;100.00
64602;BME280;68371;42.630;23.192;2023-05-19T00:58:16;92537.78;;;10.37;100.00
64602;BME280;68371;42.630;23.192;2023-05-19T01:00:44;92531.75;;;10.36;100.00
64602;BME280;68371;42.630;23.192;2023-05-19T01:03:13;92539.72;;;10.40;100.00
64602;BME280;68371;42.630;23.192;2023-05-19T01:05:44;92535.91;;;10.37;100.00
64602;BME280;68371;42.630;23.192;2023-05-19T01:08:14;92532.84;;;10.35;100.00
64602;BME280;68371;42.630;23.192;2023-05-19T01:10:43;92544.09;;;10.36;100.00
64602;BME280;68371;42.630;23.192;2023-05-19T01:13:09;92540.50;;;10.28;100.00
64602;BME280;68371;42.630;23.192;2023-05-19T01:15:55;92540.50;;;10.28;100.00
64602;BME280;68371;42.630;23.192;2023-05-19T01:18:30;92541.81;;;10.22;100.00
64602;BME280;68371;42.630;23.192;2023-05-19T01:24:25;92545.31;;;10.14;100.00
64602;BME280;68371;42.630;23.192;2023-05-19T01:27:08;92518.28;;;9.89;100.00
64602;BME280;68371;42.630;23.192;2023-05-19T01:30:08;92530.50;;;9.85;100.00
64602;BME280;68371;42.630;23.192;2023-05-19T01:32:40;92544.31;;;9.94;100.00
64602;BME280;68371;42.630;23.192;2023-05-19T01:35:08;92538.06;;;9.86;100.00
64602;BME280;68371;42.630;23.192;2023-05-19T01:37:39;92540.38;;;9.88;100.00
64602;BME280;68371;42.630;23.192;2023-05-19T01:40:10;92542.66;;;9.89;100.00
64602;BME280;68371;42.630;23.192;2023-05-19T01:42:39;92544.06;;;9.87;100.00
64602;BME280;68371;42.630;23.192;2023-05-19T01:45:14;92529.63;;;9.80;100.00
64602;BME280;68371;42.630;23.192;2023-05-19T01:47:43;92545.50;;;9.84;100.00
64602;BME280;68371;42.630;23.192;2023-05-19T01:50:10;92513.09;;;9.55;100.00
64602;BME280;68371;42.630;23.192;2023-05-19T01:52:38;92542.97;;;9.75;100.00
64602;BME280;68371;42.630;23.192;2023-05-19T01:55:05;92536.72;;;9.68;100.00
64602;BME280;68371;42.630;23.192;2023-05-19T01:57:41;92543.28;;;9.61;100.00
64602;BME280;68371;42.630;23.192;2023-05-19T02:00:15;92537.72;;;9.63;100.00
64602;BME280;68371;42.630;23.192;2023-05-19T02:02:54;92544.22;;;9.57;100.00
64602;BME280;68371;42.630;23.192;2023-05-19T02:05:26;92551.22;;;9.53;100.00
64602;BME280;68371;42.630;23.192;2023-05-19T02:08:00;92560.50;;;9.50;100.00
64602;BME280;68371;42.630;23.192;2023-05-19T02:10:32;92560.50;;;9.50;100.00
64602;BME280;68371;42.630;23.192;2023-05-19T02:13:04;92561.47;;;9.46;100.00
64602;BME280;68371;42.630;23.192;2023-05-19T02:15:37;92547.56;;;9.33;100.00
64602;BME280;68371;42.630;23.192;2023-05-19T02:18:08;92553.00;;;9.28;100.00
64602;BME280;68371;42.630;23.192;2023-05-19T02:20:35;92556.63;;;9.35;100.00
64602;BME280;68371;42.630;23.192;2023-05-19T02:23:02;92554.34;;;9.34;100.00
64602;BME280;68371;42.630;23.192;2023-05-19T02:25:29;92554.75;;;9.23;100.00
64602;BME280;68371;42.630;23.192;2023-05-19T02:27:57;92525.28;;;9.06;100.00
64602;BME280;68371;42.630;23.192;2023-05-19T02:30:23;92562.84;;;9.31;100.00
64602;BME280;68371;42.630;23.192;2023-05-19T02:32:51;92562.72;;;9.27;100.00
64602;BME280;68371;42.630;23.192;2023-05-19T02:35:18;92568.59;;;9.24;100.00
64602;BME280;68371;42.630;23.192;2023-05-19T02:37:45;92572.00;;;9.25;100.00
64602;BME280;68371;42.630;23.192;2023-05-19T02:40:12;92561.84;;;9.23;100.00
64602;BME280;68371;42.630;23.192;2023-05-19T02:42:40;92567.09;;;9.23;100.00
64602;BME280;68371;42.630;23.192;2023-05-19T02:45:07;92560.06;;;9.15;100.00
64602;BME280;68371;42.630;23.192;2023-05-19T02:47:34;92565.31;;;9.15;100.00
64602;BME280;68371;42.630;23.192;2023-05-19T02:50:04;92558.72;;;9.09;100.00
64602;BME280;68371;42.630;23.192;2023-05-19T02:52:31;92569.53;;;9.07;100.00
64602;BME280;68371;42.630;23.192;2023-05-19T02:54:58;92559.50;;;9.09;100.00
64602;BME280;68371;42.630;23.192;2023-05-19T02:57:24;92567.34;;;9.09;100.00
64602;BME280;68371;42.630;23.192;2023-05-19T02:59:52;92561.00;;;9.10;100.00
64602;BME280;68371;42.630;23.192;2023-05-19T03:02:18;92545.56;;;8.96;100.00
64602;BME280;68371;42.630;23.192;2023-05-19T03:04:48;92562.72;;;9.06;100.00
64602;BME280;68371;42.630;23.192;2023-05-19T03:07:18;92567.88;;;9.02;100.00
64602;BME280;68371;42.630;23.192;2023-05-19T03:09:49;92564.22;;;8.95;100.00
64602;BME280;68371;42.630;23.192;2023-05-19T03:12:17;92568.13;;;8.89;100.00
64602;BME280;68371;42.630;23.192;2023-05-19T03:14:43;92566.56;;;8.88;100.00
64602;BME280;68371;42.630;23.192;2023-05-19T03:17:11;92582.19;;;8.84;100.00
64602;BME280;68371;42.630;23.192;2023-05-19T03:19:38;92566.28;;;8.68;100.00
64602;BME280;68371;42.630;23.192;2023-05-19T03:22:05;92570.09;;;8.71;100.00
64602;BME280;68371;42.630;23.192;2023-05-19T03:24:33;92578.91;;;8.66;100.00
64602;BME280;68371;42.630;23.192;2023-05-19T03:27:00;92571.06;;;8.66;100.00
64602;BME280;68371;42.630;23.192;2023-05-19T03:29:29;92578.09;;;8.74;100.00
64602;BME280;68371;42.630;23.192;2023-05-19T03:31:56;92578.84;;;8.75;100.00
64602;BME280;68371;42.630;23.192;2023-05-19T03:34:24;92579.59;;;8.75;100.00
64602;BME280;68371;42.630;23.192;2023-05-19T03:36:50;92563.97;;;8.67;100.00
64602;BME280;68371;42.630;23.192;2023-05-19T03:39:18;92575.59;;;8.78;100.00
64602;BME280;68371;42.630;23.192;2023-05-19T03:41:48;92586.41;;;8.76;100.00
64602;BME280;68371;42.630;23.192;2023-05-19T03:44:15;92500.41;;;8.28;100.00
64602;BME280;68371;42.630;23.192;2023-05-19T03:46:43;92584.03;;;8.83;100.00
64602;BME280;68371;42.630;23.192;2023-05-19T03:49:10;92574.81;;;8.77;100.00
64602;BME280;68371;42.630;23.192;2023-05-19T03:51:38;92584.91;;;8.88;100.00
64602;BME280;68371;42.630;23.192;2023-05-19T03:54:05;92574.13;;;8.89;100.00
64602;BME280;68371;42.630;23.192;2023-05-19T03:56:32;92584.22;;;8.99;100.00
64602;BME280;68371;42.630;23.192;2023-05-19T03:59:00;92576.22;;;8.96;100.00
64602;BME280;68371;42.630;23.192;2023-05-19T04:01:26;92550.94;;;8.79;100.00
64602;BME280;68371;42.630;23.192;2023-05-19T04:03:53;92582.34;;;9.00;100.00
64602;BME280;68371;42.630;23.192;2023-05-19T04:06:20;92582.94;;;9.06;100.00
64602;BME280;68371;42.630;23.192;2023-05-19T04:08:49;92563.38;;;9.03;100.00
64602;BME280;68371;42.630;23.192;2023-05-19T04:11:15;92578.84;;;9.17;100.00
64602;BME280;68371;42.630;23.192;2023-05-19T04:13:44;92582.69;;;9.19;100.00
64602;BME280;68371;42.630;23.192;2023-05-19T04:16:13;92582.38;;;9.21;100.00
64602;BME280;68371;42.630;23.192;2023-05-19T04:18:40;92581.84;;;9.28;100.00
64602;BME280;68371;42.630;23.192;2023-05-19T04:21:06;92569.44;;;9.16;100.00
64602;BME280;68371;42.630;23.192;2023-05-19T04:23:33;92581.00;;;9.36;100.00
64602;BME280;68371;42.630;23.192;2023-05-19T04:26:00;92582.41;;;9.33;100.00
64602;BME280;68371;42.630;23.192;2023-05-19T04:28:27;92586.06;;;9.41;100.00
64602;BME280;68371;42.630;23.192;2023-05-19T04:30:54;92586.16;;;9.45;100.00
64602;BME280;68371;42.630;23.192;2023-05-19T04:33:24;92590.44;;;9.49;100.00
64602;BME280;68371;42.630;23.192;2023-05-19T04:35:51;92589.69;;;9.61;100.00
64602;BME280;68371;42.630;23.192;2023-05-19T04:38:17;92590.72;;;9.69;100.00
64602;BME280;68371;42.630;23.192;2023-05-19T04:40:46;92584.06;;;9.71;100.00
64602;BME280;68371;42.630;23.192;2023-05-19T04:43:14;92587.81;;;9.82;100.00
64602;BME280;68371;42.630;23.192;2023-05-19T04:45:42;92597.75;;;9.89;100.00
64602;BME280;68371;42.630;23.192;2023-05-19T04:48:08;92595.81;;;9.98;100.00
64602;BME280;68371;42.630;23.192;2023-05-19T04:50:37;92599.22;;;10.11;100.00
64602;BME280;68371;42.630;23.192;2023-05-19T04:53:06;92606.13;;;10.16;100.00
64602;BME280;68371;42.630;23.192;2023-05-19T04:55:33;92605.25;;;10.24;100.00
64602;BME280;68371;42.630;23.192;2023-05-19T04:57:59;92600.09;;;10.28;100.00
64602;BME280;68371;42.630;23.192;2023-05-19T05:00:26;92601.34;;;10.30;100.00
64602;BME280;68371;42.630;23.192;2023-05-19T05:02:53;92596.97;;;10.34;100.00
64602;BME280;68371;42.630;23.192;2023-05-19T05:05:22;92604.50;;;10.36;100.00
64602;BME280;68371;42.630;23.192;2023-05-19T05:07:51;92602.56;;;10.45;100.00
64602;BME280;68371;42.630;23.192;2023-05-19T05:10:19;92610.00;;;10.55;100.00
64602;BME280;68371;42.630;23.192;2023-05-19T05:12:48;92605.19;;;10.57;100.00
64602;BME280;68371;42.630;23.192;2023-05-19T05:15:15;92609.00;;;10.60;100.00
64602;BME280;68371;42.630;23.192;2023-05-19T05:17:42;92613.50;;;10.59;100.00
64602;BME280;68371;42.630;23.192;2023-05-19T05:20:11;92610.22;;;10.62;100.00
64602;BME280;68371;42.630;23.192;2023-05-19T05:22:38;92605.63;;;10.59;100.00
64602;BME280;68371;42.630;23.192;2023-05-19T05:25:08;92611.75;;;10.63;100.00
64602;BME280;68371;42.630;23.192;2023-05-19T05:27:35;92613.47;;;10.72;100.00
64602;BME280;68371;42.630;23.192;2023-05-19T05:30:02;92611.72;;;10.76;100.00
64602;BME280;68371;42.630;23.192;2023-05-19T05:32:29;92604.94;;;10.75;100.00
64602;BME280;68371;42.630;23.192;2023-05-19T05:34:55;92605.03;;;10.78;100.00
64602;BME280;68371;42.630;23.192;2023-05-19T05:37:25;92599.78;;;10.78;100.00
64602;BME280;68371;42.630;23.192;2023-05-19T05:39:53;92606.69;;;10.83;100.00
64602;BME280;68371;42.630;23.192;2023-05-19T05:42:23;92589.28;;;10.66;100.00
64602;BME280;68371;42.630;23.192;2023-05-19T05:44:50;92616.97;;;10.88;100.00
64602;BME280;68371;42.630;23.192;2023-05-19T05:47:17;92611.81;;;10.92;100.00
64602;BME280;68371;42.630;23.192;2023-05-19T05:49:44;92585.13;;;10.77;100.00
64602;BME280;68371;42.630;23.192;2023-05-19T05:52:13;92619.03;;;11.07;100.00
64602;BME280;68371;42.630;23.192;2023-05-19T05:54:41;92619.47;;;11.09;100.00
64602;BME280;68371;42.630;23.192;2023-05-19T05:57:09;92624.16;;;11.16;100.00
64602;BME280;68371;42.630;23.192;2023-05-19T05:59:37;92619.75;;;11.20;100.00
64602;BME280;68371;42.630;23.192;2023-05-19T06:02:05;92625.22;;;11.27;100.00
64602;BME280;68371;42.630;23.192;2023-05-19T06:04:32;92621.25;;;11.33;100.00
64602;BME280;68371;42.630;23.192;2023-05-19T06:06:59;92624.84;;;11.41;100.00
64602;BME280;68371;42.630;23.192;2023-05-19T06:09:26;92628.53;;;11.52;100.00
64602;BME280;68371;42.630;23.192;2023-05-19T06:11:57;92604.47;;;11.38;100.00
64602;BME280;68371;42.630;23.192;2023-05-19T06:14:27;92630.69;;;11.62;100.00
64602;BME280;68371;42.630;23.192;2023-05-19T06:16:56;92636.56;;;11.72;100.00
64602;BME280;68371;42.630;23.192;2023-05-19T06:19:22;92626.47;;;11.74;98.21
64602;BME280;68371;42.630;23.192;2023-05-19T06:21:51;92637.06;;;11.90;100.00
64602;BME280;68371;42.630;23.192;2023-05-19T06:24:18;92629.25;;;11.93;97.73
64602;BME280;68371;42.630;23.192;2023-05-19T06:26:44;92631.50;;;12.07;97.10
64602;BME280;68371;42.630;23.192;2023-05-19T06:29:11;92631.59;;;12.11;95.22
64602;BME280;68371;42.630;23.192;2023-05-19T06:31:38;92612.72;;;12.09;95.40
64602;BME280;68371;42.630;23.192;2023-05-19T06:34:06;92638.06;;;12.29;94.42
64602;BME280;68371;42.630;23.192;2023-05-19T06:36:34;92637.66;;;12.43;96.08
64602;BME280;68371;42.630;23.192;2023-05-19T06:39:01;92608.66;;;12.27;94.55
64602;BME280;68371;42.630;23.192;2023-05-19T06:41:27;92626.84;;;12.48;94.99
64602;BME280;68371;42.630;23.192;2023-05-19T06:43:54;92639.50;;;12.58;96.25
64602;BME280;68371;42.630;23.192;2023-05-19T06:46:22;92639.50;;;12.74;96.09
64602;BME280;68371;42.630;23.192;2023-05-19T06:48:49;92643.72;;;12.79;96.01
64602;BME280;68371;42.630;23.192;2023-05-19T06:51:17;92648.06;;;12.87;93.93
64602;BME280;68371;42.630;23.192;2023-05-19T06:53:46;92649.06;;;12.98;92.74
64602;BME280;68371;42.630;23.192;2023-05-19T06:56:13;92650.41;;;13.08;90.75
64602;BME280;68371;42.630;23.192;2023-05-19T06:58:40;92653.34;;;13.22;90.70
64602;BME280;68371;42.630;23.192;2023-05-19T07:01:06;92653.78;;;13.25;89.61
64602;BME280;68371;42.630;23.192;2023-05-19T07:03:33;92652.22;;;13.23;87.64
64602;BME280;68371;42.630;23.192;2023-05-19T07:06:00;92651.56;;;13.27;90.73
64602;BME280;68371;42.630;23.192;2023-05-19T07:08:29;92652.44;;;13.31;90.07
64602;BME280;68371;42.630;23.192;2023-05-19T07:10:58;92658.66;;;13.42;90.98
64602;BME280;68371;42.630;23.192;2023-05-19T07:13:24;92656.88;;;13.46;86.91
64602;BME280;68371;42.630;23.192;2023-05-19T07:15:51;92665.78;;;13.57;89.22
64602;BME280;68371;42.630;23.192;2023-05-19T07:18:20;92671.13;;;13.61;87.60
64602;BME280;68371;42.630;23.192;2023-05-19T07:20:46;92665.84;;;13.61;87.44
64602;BME280;68371;42.630;23.192;2023-05-19T07:23:13;92658.63;;;13.77;88.06
64602;BME280;68371;42.630;23.192;2023-05-19T07:25:41;92667.38;;;13.81;86.37
64602;BME280;68371;42.630;23.192;2023-05-19T07:28:08;92664.75;;;14.01;89.24
64602;BME280;68371;42.630;23.192;2023-05-19T07:30:35;92643.41;;;13.90;85.02
64602;BME280;68371;42.630;23.192;2023-05-19T07:33:03;92676.59;;;14.11;86.25
64602;BME280;68371;42.630;23.192;2023-05-19T07:35:29;92669.50;;;14.15;84.75
64602;BME280;68371;42.630;23.192;2023-05-19T07:37:56;92663.13;;;14.16;84.02
64602;BME280;68371;42.630;23.192;2023-05-19T07:40:26;92665.94;;;14.27;84.62
64602;BME280;68371;42.630;23.192;2023-05-19T07:42:56;92664.13;;;14.31;84.16
64602;BME280;68371;42.630;23.192;2023-05-19T07:45:23;92658.84;;;14.31;85.96
64602;BME280;68371;42.630;23.192;2023-05-19T07:47:49;92652.56;;;14.39;86.77
64602;BME280;68371;42.630;23.192;2023-05-19T07:50:16;92651.56;;;14.47;83.89
64602;BME280;68371;42.630;23.192;2023-05-19T07:52:43;92651.22;;;14.49;85.08
64602;BME280;68371;42.630;23.192;2023-05-19T07:55:10;92663.47;;;14.57;82.74
64602;BME280;68371;42.630;23.192;2023-05-19T07:57:37;92655.25;;;14.62;82.40
64602;BME280;68371;42.630;23.192;2023-05-19T08:00:07;92665.75;;;14.58;84.48
64602;BME280;68371;42.630;23.192;2023-05-19T08:02:36;92661.13;;;14.55;82.58
64602;BME280;68371;42.630;23.192;2023-05-19T08:05:03;92665.84;;;14.66;83.14
64602;BME280;68371;42.630;23.192;2023-05-19T08:07:31;92607.06;;;14.26;84.65
64602;BME280;68371;42.630;23.192;2023-05-19T08:09:58;92658.81;;;14.73;82.16
64602;BME280;68371;42.630;23.192;2023-05-19T08:12:25;92668.78;;;14.83;81.59
64602;BME280;68371;42.630;23.192;2023-05-19T08:14:52;92663.91;;;14.86;84.72
64602;BME280;68371;42.630;23.192;2023-05-19T08:17:20;92665.84;;;14.89;82.50
64602;BME280;68371;42.630;23.192;2023-05-19T08:19:47;92664.72;;;14.90;82.52
64602;BME280;68371;42.630;23.192;2023-05-19T08:22:14;92672.31;;;14.91;80.59
64602;BME280;68371;42.630;23.192;2023-05-19T08:24:40;92628.69;;;14.81;81.71
64602;BME280;68371;42.630;23.192;2023-05-19T08:27:08;92667.22;;;15.06;80.64
64602;BME280;68371;42.630;23.192;2023-05-19T08:29:35;92672.66;;;15.16;83.26
64602;BME280;68371;42.630;23.192;2023-05-19T08:32:03;92673.69;;;15.35;82.69
64602;BME280;68371;42.630;23.192;2023-05-19T08:34:32;92664.50;;;15.29;81.09
64602;BME280;68371;42.630;23.192;2023-05-19T08:36:59;92672.16;;;15.34;78.77
64602;BME280;68371;42.630;23.192;2023-05-19T08:39:27;92678.78;;;15.47;80.02
64602;BME280;68371;42.630;23.192;2023-05-19T08:41:54;92681.16;;;15.56;80.03
64602;BME280;68371;42.630;23.192;2023-05-19T08:44:21;92675.16;;;15.62;80.43
64602;BME280;68371;42.630;23.192;2023-05-19T08:46:48;92657.00;;;15.61;79.42
64602;BME280;68371;42.630;23.192;2023-05-19T08:49:20;92667.84;;;15.79;78.84
64602;BME280;68371;42.630;23.192;2023-05-19T08:51:56;92668.78;;;15.94;77.68
64602;BME280;68371;42.630;23.192;2023-05-19T08:54:31;92670.78;;;16.04;80.39
64602;BME280;68371;42.630;23.192;2023-05-19T08:57:00;92654.59;;;16.13;79.81
64602;BME280;68371;42.630;23.192;2023-05-19T08:59:27;92676.78;;;16.35;78.86
64602;BME280;68371;42.630;23.192;2023-05-19T09:01:54;92654.44;;;16.36;77.88
64602;BME280;68371;42.630;23.192;2023-05-19T09:04:21;92671.13;;;16.40;74.95
64602;BME280;68371;42.630;23.192;2023-05-19T09:06:53;92666.59;;;16.40;76.67
64602;BME280;68371;42.630;23.192;2023-05-19T09:09:21;92660.19;;;16.45;75.78
64602;BME280;68371;42.630;23.192;2023-05-19T09:11:47;92668.19;;;16.49;76.09
64602;BME280;68371;42.630;23.192;2023-05-19T09:14:14;92663.59;;;16.46;75.18
64602;BME280;68371;42.630;23.192;2023-05-19T09:16:41;92665.22;;;16.57;76.39
64602;BME280;68371;42.630;23.192;2023-05-19T09:19:12;92670.63;;;16.65;76.14
64602;BME280;68371;42.630;23.192;2023-05-19T09:21:40;92664.72;;;16.82;80.44
64602;BME280;68371;42.630;23.192;2023-05-19T09:24:09;92667.50;;;17.00;77.56
64602;BME280;68371;42.630;23.192;2023-05-19T09:26:36;92653.84;;;16.98;72.88
64602;BME280;68371;42.630;23.192;2023-05-19T09:29:10;92661.06;;;17.05;73.23
64602;BME280;68371;42.630;23.192;2023-05-19T09:31:37;92660.72;;;17.06;73.56
64602;BME280;68371;42.630;23.192;2023-05-19T09:34:11;92660.78;;;17.17;76.17
64602;BME280;68371;42.630;23.192;2023-05-19T09:36:39;92664.66;;;17.30;71.85
64602;BME280;68371;42.630;23.192;2023-05-19T09:39:13;92658.94;;;17.25;73.57
64602;BME280;68371;42.630;23.192;2023-05-19T09:41:40;92663.13;;;17.26;73.48
64602;BME280;68371;42.630;23.192;2023-05-19T09:44:11;92655.16;;;17.26;73.00
64602;BME280;68371;42.630;23.192;2023-05-19T09:46:43;92655.97;;;17.37;72.96
64602;BME280;68371;42.630;23.192;2023-05-19T09:49:12;92654.16;;;17.55;71.80
64602;BME280;68371;42.630;23.192;2023-05-19T09:51:40;92665.28;;;17.75;75.94
64602;BME280;68371;42.630;23.192;2023-05-19T09:54:07;92633.00;;;17.66;69.50
64602;BME280;68371;42.630;23.192;2023-05-19T09:56:37;92655.94;;;18.03;69.15
64602;BME280;68371;42.630;23.192;2023-05-19T09:59:03;92648.69;;;18.04;69.62
64602;BME280;68371;42.630;23.192;2023-05-19T10:01:32;92645.53;;;17.80;67.46
64602;BME280;68371;42.630;23.192;2023-05-19T10:04:02;92635.72;;;17.84;67.00
64602;BME280;68371;42.630;23.192;2023-05-19T10:06:29;92660.09;;;18.08;70.37
64602;BME280;68371;42.630;23.192;2023-05-19T10:08:58;92652.59;;;18.31;69.45
64602;BME280;68371;42.630;23.192;2023-05-19T10:11:26;92658.25;;;18.26;66.02
64602;BME280;68371;42.630;23.192;2023-05-19T10:13:54;92651.03;;;18.19;66.42
64602;BME280;68371;42.630;23.192;2023-05-19T10:16:22;92650.69;;;18.35;66.94
64602;BME280;68371;42.630;23.192;2023-05-19T10:18:52;92646.53;;;18.52;63.30
64602;BME280;68371;42.630;23.192;2023-05-19T10:21:20;92654.91;;;18.47;65.26
64602;BME280;68371;42.630;23.192;2023-05-19T10:23:47;92652.19;;;18.36;63.52
64602;BME280;68371;42.630;23.192;2023-05-19T10:26:14;92643.09;;;18.41;65.32
64602;BME280;68371;42.630;23.192;2023-05-19T10:28:41;92639.28;;;18.35;63.88
64602;BME280;68371;42.630;23.192;2023-05-19T10:31:14;92607.72;;;18.26;62.17
64602;BME280;68371;42.630;23.192;2023-05-19T10:33:58;92633.97;;;18.53;64.78
64602;BME280;68371;42.630;23.192;2023-05-19T10:36:43;92635.91;;;18.59;66.42
64602;BME280;68371;42.630;23.192;2023-05-19T10:39:15;92630.22;;;18.86;66.53
64602;BME280;68371;42.630;23.192;2023-05-19T10:41:47;92629.03;;;19.23;65.22
64602;BME280;68371;42.630;23.192;2023-05-19T10:44:25;92630.13;;;19.40;60.70
64602;BME280;68371;42.630;23.192;2023-05-19T10:46:56;92625.94;;;19.57;62.02
64602;BME280;68371;42.630;23.192;2023-05-19T10:49:23;92623.56;;;19.80;59.09
64602;BME280;68371;42.630;23.192;2023-05-19T10:51:51;92605.28;;;19.83;59.12
64602;BME280;68371;42.630;23.192;2023-05-19T10:54:40;92594.53;;;20.04;58.37
64602;BME280;68371;42.630;23.192;2023-05-19T10:57:12;92622.94;;;20.32;52.65
64602;BME280;68371;42.630;23.192;2023-05-19T10:59:39;92615.56;;;20.51;52.85
64602;BME280;68371;42.630;23.192;2023-05-19T11:02:09;92614.38;;;20.55;55.55
64602;BME280;68371;42.630;23.192;2023-05-19T11:04:47;92604.84;;;20.61;52.39
64602;BME280;68371;42.630;23.192;2023-05-19T11:07:16;92613.78;;;20.89;50.82
64602;BME280;68371;42.630;23.192;2023-05-19T11:09:48;92604.91;;;20.99;49.01
64602;BME280;68371;42.630;23.192;2023-05-19T11:12:18;92612.09;;;21.06;49.63
64602;BME280;68371;42.630;23.192;2023-05-19T11:14:45;92618.75;;;21.29;49.35
64602;BME280;68371;42.630;23.192;2023-05-19T11:17:14;92616.59;;;21.16;48.96
64602;BME280;68371;42.630;23.192;2023-05-19T11:19:51;92610.13;;;20.72;47.30
64602;BME280;68371;42.630;23.192;2023-05-19T11:22:22;92613.66;;;20.48;48.54
64602;BME280;68371;42.630;23.192;2023-05-19T11:24:49;92612.28;;;20.29;50.17
64602;BME280;68371;42.630;23.192;2023-05-19T11:27:19;92588.09;;;19.91;53.78
64602;BME280;68371;42.630;23.192;2023-05-19T11:29:47;92619.06;;;20.44;51.68
64602;BME280;68371;42.630;23.192;2023-05-19T11:32:15;92607.81;;;20.74;48.25
64602;BME280;68371;42.630;23.192;2023-05-19T11:34:43;92602.19;;;21.07;52.72
64602;BME280;68371;42.630;23.192;2023-05-19T11:37:11;92603.38;;;21.40;49.31
64602;BME280;68371;42.630;23.192;2023-05-19T11:39:38;92585.91;;;21.70;49.49
64602;BME280;68371;42.630;23.192;2023-05-19T11:42:08;92575.22;;;21.70;45.56
64602;BME280;68371;42.630;23.192;2023-05-19T11:44:37;92592.75;;;22.01;49.24
64602;BME280;68371;42.630;23.192;2023-05-19T11:47:06;92586.41;;;22.19;46.76
64602;BME280;68371;42.630;23.192;2023-05-19T11:49:34;92593.81;;;22.08;42.99
64602;BME280;68371;42.630;23.192;2023-05-19T11:52:02;92595.94;;;22.20;43.12
64602;BME280;68371;42.630;23.192;2023-05-19T11:54:30;92594.13;;;22.13;44.58
64602;BME280;68371;42.630;23.192;2023-05-19T11:56:59;92586.66;;;22.01;44.68
64602;BME280;68371;42.630;23.192;2023-05-19T11:59:31;92581.34;;;21.67;44.97
64602;BME280;68371;42.630;23.192;2023-05-19T12:02:00;92600.19;;;21.56;46.25
64602;BME280;68371;42.630;23.192;2023-05-19T12:04:27;92601.06;;;21.42;47.04
64602;BME280;68371;42.630;23.192;2023-05-19T12:06:55;92602.88;;;20.69;46.63
64602;BME280;68371;42.630;23.192;2023-05-19T12:09:22;92630.88;;;20.39;48.85
64602;BME280;68371;42.630;23.192;2023-05-19T12:11:50;92637.63;;;19.88;57.35
64602;BME280;68371;42.630;23.192;2023-05-19T12:14:17;92655.59;;;19.73;66.93
64602;BME280;68371;42.630;23.192;2023-05-19T12:16:44;92660.28;;;18.94;69.56
64602;BME280;68371;42.630;23.192;2023-05-19T12:19:10;92668.56;;;18.46;71.83
64602;BME280;68371;42.630;23.192;2023-05-19T12:21:39;92645.91;;;17.71;71.97
64602;BME280;68371;42.630;23.192;2023-05-19T12:24:08;92670.81;;;17.45;74.02
64602;BME280;68371;42.630;23.192;2023-05-19T12:26:35;92662.31;;;17.18;74.62
64602;BME280;68371;42.630;23.192;2023-05-19T12:29:04;92664.22;;;17.17;76.10
64602;BME280;68371;42.630;23.192;2023-05-19T12:31:31;92670.22;;;17.11;78.87
64602;BME280;68371;42.630;23.192;2023-05-19T12:33:59;92681.50;;;16.97;78.53
64602;BME280;68371;42.630;23.192;2023-05-19T12:36:26;92659.34;;;16.75;77.08
64602;BME280;68371;42.630;23.192;2023-05-19T12:38:55;92670.09;;;16.52;77.85
64602;BME280;68371;42.630;23.192;2023-05-19T12:41:24;92669.22;;;16.37;81.24
64602;BME280;68371;42.630;23.192;2023-05-19T12:43:52;92672.66;;;16.03;80.01
64602;BME280;68371;42.630;23.192;2023-05-19T12:46:19;92679.84;;;16.03;82.96
64602;BME280;68371;42.630;23.192;2023-05-19T12:48:46;92669.69;;;16.09;82.44
64602;BME280;68371;42.630;23.192;2023-05-19T12:51:16;92669.81;;;15.86;85.93
64602;BME280;68371;42.630;23.192;2023-05-19T12:53:48;92649.91;;;15.69;86.28
64602;BME280;68371;42.630;23.192;2023-05-19T12:56:17;92664.06;;;15.80;84.70
64602;BME280;68371;42.630;23.192;2023-05-19T12:58:52;92655.44;;;15.87;85.30